Time;durP1;ratioP1;P1;durP2;ratioP2;P2;SDS_P1;SDS_P2;PMS_P1;PMS_P2;Temp;Humidity;BMP_temperature;BMP_pressure;BME280_temperature;BME280_humidity;BME280_pressure;Samples;Min_cycle;Max_cycle;Signal;HPM_P1;HPM_P2
2022/04/13 00:02:06;;;;;;;9.48;5.78;;;12.60;99.90;;;;;;5099308;28;20047;-69
2022/04/13 00:04:32;;;;;;;9.85;6.47;;;12.60;99.90;;;;;;5093907;28;20044;-70
2022/04/13 00:06:58;;;;;;;5.68;5.07;;;12.50;99.90;;;;;;5076993;28;20048;-69
2022/04/13 00:09:24;;;;;;;6.85;5.28;;;12.50;99.90;;;;;;5076228;28;20047;-70
2022/04/13 00:11:51;;;;;;;7.85;5.90;;;12.50;99.90;;;;;;5094785;27;20035;-69
2022/04/13 00:14:23;;;;;;;5.97;5.32;;;12.50;99.90;;;;;;5104023;28;20048;-69
2022/04/13 00:16:51;;;;;;;8.95;6.70;;;12.50;99.90;;;;;;5079920;28;20410;-70
2022/04/13 00:19:17;;;;;;;7.95;5.90;;;12.40;99.90;;;;;;5114291;28;20482;-69
2022/04/13 00:21:43;;;;;;;8.05;5.97;;;12.40;99.90;;;;;;5096373;28;20052;-69
2022/04/13 00:24:09;;;;;;;7.38;6.13;;;12.30;99.90;;;;;;5101317;28;20394;-69
2022/04/13 00:26:34;;;;;;;6.20;5.47;;;12.30;99.90;;;;;;5074805;28;20135;-70
2022/04/13 00:29:01;;;;;;;7.90;5.70;;;12.30;99.90;;;;;;5093622;28;20448;-70
2022/04/13 00:31:27;;;;;;;9.45;5.47;;;12.30;99.90;;;;;;5092746;28;20044;-69
2022/04/13 00:33:52;;;;;;;8.30;6.38;;;12.30;99.90;;;;;;5093828;28;20402;-70
2022/04/13 00:36:18;;;;;;;6.93;5.82;;;12.30;99.90;;;;;;5094130;28;20482;-70
2022/04/13 00:38:43;;;;;;;6.28;5.50;;;12.20;99.90;;;;;;5074932;28;20495;-70
2022/04/13 00:41:09;;;;;;;7.40;5.70;;;12.20;99.90;;;;;;5094202;28;20608;-69
2022/04/13 00:43:35;;;;;;;6.60;5.95;;;12.20;99.90;;;;;;5093636;28;20051;-70
2022/04/13 00:46:00;;;;;;;6.38;5.78;;;12.20;99.90;;;;;;5093188;28;20123;-70
2022/04/13 00:48:34;;;;;;;6.35;5.55;;;12.10;99.90;;;;;;5075483;28;20050;-69
2022/04/13 00:51:00;;;;;;;6.38;5.38;;;12.10;99.90;;;;;;5075432;28;20063;-69
2022/04/13 00:53:26;;;;;;;6.78;5.80;;;12.00;99.90;;;;;;5074700;28;20048;-69
2022/04/13 00:55:57;;;;;;;6.85;6.10;;;12.00;99.90;;;;;;5075123;28;20064;-70
2022/04/13 00:58:25;;;;;;;7.93;5.78;;;11.90;99.90;;;;;;5093647;28;20055;-69
2022/04/13 01:00:52;;;;;;;10.25;6.40;;;11.90;99.90;;;;;;5073666;28;20124;-69
2022/04/13 01:03:24;;;;;;;6.47;5.88;;;12.00;99.90;;;;;;5074859;28;20051;-69
2022/04/13 01:05:51;;;;;;;9.82;6.88;;;11.90;99.90;;;;;;5074970;28;20479;-69
2022/04/13 01:08:18;;;;;;;7.90;6.57;;;11.90;99.90;;;;;;5074255;28;20048;-69
2022/04/13 01:10:46;;;;;;;7.80;6.85;;;12.00;99.90;;;;;;5074670;28;20048;-70
2022/04/13 01:13:12;;;;;;;8.02;5.93;;;11.90;99.90;;;;;;5093755;28;20406;-69
2022/04/13 01:15:38;;;;;;;9.50;5.72;;;12.00;99.90;;;;;;5074522;28;20258;-70
2022/04/13 01:18:04;;;;;;;14.40;6.68;;;11.90;99.90;;;;;;5106796;27;20043;-69
2022/04/13 01:20:29;;;;;;;8.40;6.18;;;12.00;99.90;;;;;;5133617;27;20122;-69
2022/04/13 01:22:55;;;;;;;10.27;6.43;;;11.90;99.90;;;;;;5095222;28;20122;-69
2022/04/13 01:25:21;;;;;;;7.40;6.13;;;11.90;99.90;;;;;;5095687;28;20051;-69
2022/04/13 01:27:46;;;;;;;6.95;6.13;;;11.90;99.90;;;;;;5112792;28;20122;-69
2022/04/13 01:30:13;;;;;;;14.35;6.78;;;11.90;99.90;;;;;;5113580;28;20047;-69
2022/04/13 01:32:38;;;;;;;7.57;6.70;;;11.90;99.90;;;;;;5113136;28;20043;-70
2022/04/13 01:35:06;;;;;;;6.25;5.65;;;11.90;99.90;;;;;;5105709;27;20590;-69
2022/04/13 01:37:32;;;;;;;7.45;6.07;;;11.80;99.90;;;;;;5133802;27;20126;-70
2022/04/13 01:39:57;;;;;;;10.10;5.57;;;11.80;99.90;;;;;;5115671;27;20184;-70
2022/04/13 01:42:23;;;;;;;8.70;7.45;;;11.80;99.90;;;;;;5132851;27;20035;-70
2022/04/13 01:44:49;;;;;;;8.70;7.13;;;11.80;99.90;;;;;;5133468;27;20566;-69
2022/04/13 01:47:14;;;;;;;11.20;8.05;;;11.80;99.90;;;;;;5115540;27;20127;-70
2022/04/13 01:49:41;;;;;;;6.93;6.20;;;11.80;99.90;;;;;;5112860;27;20090;-69
2022/04/13 01:52:07;;;;;;;9.23;7.13;;;11.80;99.90;;;;;;5133874;27;20051;-69
2022/04/13 01:54:33;;;;;;;9.02;7.10;;;11.80;99.90;;;;;;5133638;27;20514;-70
2022/04/13 01:56:59;;;;;;;9.32;7.57;;;11.80;99.90;;;;;;5114498;27;20054;-69
2022/04/13 01:59:25;;;;;;;14.50;8.30;;;11.80;99.90;;;;;;5133509;27;20039;-69
2022/04/13 02:01:51;;;;;;;10.05;7.88;;;11.90;99.90;;;;;;5133258;27;20149;-69
2022/04/13 02:04:20;;;;;;;9.07;6.95;;;11.90;99.90;;;;;;5114612;27;20023;-69
2022/04/13 02:06:47;;;;;;;11.38;7.88;;;11.90;99.90;;;;;;5115144;27;20567;-69
2022/04/13 02:09:14;;;;;;;9.23;7.85;;;11.90;99.90;;;;;;5133573;27;20047;-69
2022/04/13 02:11:40;;;;;;;8.07;7.13;;;11.80;99.90;;;;;;5132832;27;20111;-69
2022/04/13 02:14:06;;;;;;;11.10;7.55;;;11.80;99.90;;;;;;5133336;27;20409;-69
2022/04/13 02:16:32;;;;;;;11.38;7.15;;;11.80;99.90;;;;;;5132957;27;20039;-69
2022/04/13 02:18:57;;;;;;;12.02;9.15;;;11.70;99.90;;;;;;5132639;27;20408;-69
2022/04/13 02:21:23;;;;;;;12.07;9.38;;;11.70;99.90;;;;;;5133373;27;20469;-69
2022/04/13 02:23:48;;;;;;;12.57;9.32;;;11.70;99.90;;;;;;5132172;27;20477;-70
2022/04/13 02:26:14;;;;;;;13.77;9.45;;;11.70;99.90;;;;;;5133207;27;20087;-69
2022/04/13 02:28:42;;;;;;;13.32;9.80;;;11.80;99.90;;;;;;5114432;27;20047;-69
2022/04/13 02:31:07;;;;;;;11.77;9.98;;;11.80;99.90;;;;;;5114114;27;20449;-69
2022/04/13 02:33:33;;;;;;;16.27;10.88;;;11.80;99.90;;;;;;5114334;27;20047;-69
2022/04/13 02:35:58;;;;;;;12.38;8.45;;;11.90;99.90;;;;;;5133083;27;20367;-69
2022/04/13 02:38:25;;;;;;;16.05;10.27;;;11.90;99.90;;;;;;5132088;27;20034;-69
2022/04/13 02:40:51;;;;;;;12.35;9.43;;;11.90;99.90;;;;;;5132743;27;20078;-69
2022/04/13 02:43:16;;;;;;;14.20;11.18;;;11.90;99.90;;;;;;5132871;27;20463;-69
2022/04/13 02:45:42;;;;;;;19.73;10.93;;;11.90;99.90;;;;;;5131761;27;20397;-69
2022/04/13 02:48:08;;;;;;;14.93;10.27;;;11.80;99.90;;;;;;5133008;27;20086;-69
2022/04/13 02:50:34;;;;;;;16.42;11.75;;;11.80;99.90;;;;;;5132290;27;20051;-70
2022/04/13 02:53:00;;;;;;;15.25;10.85;;;11.80;99.90;;;;;;5112757;27;20515;-69
2022/04/13 02:55:25;;;;;;;11.90;10.50;;;11.80;99.90;;;;;;5114093;27;20039;-69
2022/04/13 02:57:51;;;;;;;18.50;11.25;;;11.70;99.90;;;;;;5113797;28;20448;-69
2022/04/13 03:00:17;;;;;;;15.85;11.45;;;11.70;99.90;;;;;;5132351;27;20035;-69
2022/04/13 03:02:44;;;;;;;16.50;11.25;;;11.70;99.90;;;;;;5113913;27;20059;-69
2022/04/13 03:05:10;;;;;;;13.30;10.40;;;11.70;99.90;;;;;;5114238;28;20058;-69
2022/04/13 03:07:36;;;;;;;16.38;11.68;;;11.70;99.90;;;;;;5131634;28;20039;-70
2022/04/13 03:10:06;;;;;;;15.00;11.45;;;11.60;99.90;;;;;;5114194;28;20047;-69
2022/04/13 03:12:35;;;;;;;19.42;13.18;;;11.60;99.90;;;;;;5132412;28;20404;-70
2022/04/13 03:15:02;;;;;;;16.30;11.30;;;11.60;99.90;;;;;;5132001;28;20091;-69
2022/04/13 03:17:28;;;;;;;20.48;11.52;;;11.50;99.90;;;;;;5114003;28;20093;-69
2022/04/13 03:19:53;;;;;;;13.73;10.65;;;11.50;99.90;;;;;;5113773;28;20071;-69
2022/04/13 03:22:23;;;;;;;15.40;11.45;;;11.50;99.90;;;;;;5131761;28;20043;-69
2022/04/13 03:24:49;;;;;;;17.73;11.73;;;11.50;99.90;;;;;;5113984;28;20380;-69
2022/04/13 03:27:14;;;;;;;18.55;11.75;;;11.50;99.90;;;;;;5131620;28;20117;-69
2022/04/13 03:29:40;;;;;;;19.13;11.00;;;11.50;99.90;;;;;;5132052;28;20071;-69
2022/04/13 03:32:06;;;;;;;17.50;12.07;;;11.40;99.90;;;;;;5132357;28;20083;-69
2022/04/13 03:34:32;;;;;;;17.23;12.20;;;11.40;99.90;;;;;;5112814;28;20478;-69
2022/04/13 03:37:00;;;;;;;17.60;11.20;;;11.40;99.90;;;;;;5132682;28;20039;-69
2022/04/13 03:39:26;;;;;;;14.77;10.98;;;11.40;99.90;;;;;;5113778;28;20044;-69
2022/04/13 03:41:53;;;;;;;16.60;11.43;;;11.40;99.90;;;;;;5131090;28;20485;-70
2022/04/13 03:44:18;;;;;;;14.95;11.57;;;11.40;99.90;;;;;;5132501;28;20072;-69
2022/04/13 03:46:44;;;;;;;19.35;11.55;;;11.30;99.90;;;;;;5132107;28;20039;-69
2022/04/13 03:49:10;;;;;;;12.05;10.43;;;11.20;99.90;;;;;;5112640;28;20039;-69
2022/04/13 03:51:36;;;;;;;14.98;12.02;;;11.20;99.90;;;;;;5113544;28;20054;-69
2022/04/13 03:54:01;;;;;;;18.02;11.57;;;11.20;99.90;;;;;;5131770;28;20089;-69
2022/04/13 03:56:29;;;;;;;17.30;11.48;;;11.20;99.90;;;;;;5112901;28;20188;-69
2022/04/13 03:58:58;;;;;;;24.15;12.50;;;11.20;99.90;;;;;;5132086;28;20043;-69
2022/04/13 04:01:25;;;;;;;19.23;12.05;;;11.20;99.90;;;;;;5132196;28;20409;-69
2022/04/13 04:03:51;;;;;;;16.77;12.38;;;11.20;99.90;;;;;;5131692;27;20172;-69
2022/04/13 04:06:17;;;;;;;14.85;11.00;;;11.20;99.90;;;;;;5136098;27;20137;-69
2022/04/13 04:08:42;;;;;;;22.08;12.80;;;11.20;99.90;;;;;;5135477;27;20083;-69
2022/04/13 04:11:08;;;;;;;23.58;14.27;;;11.10;99.90;;;;;;5135287;27;20039;-69
2022/04/13 04:13:33;;;;;;;19.73;13.63;;;11.10;99.90;;;;;;5117004;27;20041;-69
2022/04/13 04:16:00;;;;;;;22.92;12.85;;;11.10;99.90;;;;;;5118187;27;20039;-69
2022/04/13 04:18:25;;;;;;;16.67;12.23;;;11.10;99.90;;;;;;5089448;28;20046;-69
2022/04/13 04:20:51;;;;;;;20.10;13.85;;;11.10;99.90;;;;;;5112290;28;20123;-69
2022/04/13 04:23:16;;;;;;;20.63;14.43;;;11.10;99.90;;;;;;5115072;28;20405;-69
2022/04/13 04:25:42;;;;;;;18.42;13.20;;;11.10;99.90;;;;;;5104374;28;20048;-69
2022/04/13 04:28:10;;;;;;;25.00;13.88;;;11.00;99.90;;;;;;5094757;28;20456;-69
2022/04/13 04:30:37;;;;;;;17.60;14.05;;;11.00;99.90;;;;;;5075292;28;20044;-69
2022/04/13 04:33:04;;;;;;;22.67;13.85;;;11.00;99.90;;;;;;5094506;28;20055;-69
2022/04/13 04:35:29;;;;;;;20.58;14.60;;;11.00;99.90;;;;;;5111023;28;20108;-70
2022/04/13 04:37:55;;;;;;;18.15;13.02;;;10.90;99.90;;;;;;5095471;28;20485;-69
2022/04/13 04:40:20;;;;;;;20.40;12.95;;;10.90;99.90;;;;;;5109721;27;20501;-69
2022/04/13 04:42:48;;;;;;;24.23;14.95;;;10.90;99.90;;;;;;5116636;27;20043;-69
2022/04/13 04:45:19;;;;;;;20.35;14.02;;;10.90;99.90;;;;;;5134408;27;20517;-69
2022/04/13 04:47:45;;;;;;;25.42;14.27;;;10.90;99.90;;;;;;5114965;27;20043;-69
2022/04/13 04:50:11;;;;;;;19.60;14.15;;;10.90;99.90;;;;;;5096273;28;20052;-69
2022/04/13 04:52:41;;;;;;;24.63;13.13;;;10.90;99.90;;;;;;5113274;28;20486;-69
2022/04/13 04:55:11;;;;;;;19.85;13.68;;;10.80;99.90;;;;;;5114636;28;20069;-69
2022/04/13 04:57:37;;;;;;;19.80;13.55;;;10.80;99.90;;;;;;5114137;28;20044;-69
2022/04/13 05:00:09;;;;;;;16.45;13.85;;;10.80;99.90;;;;;;5114143;28;20058;-69
2022/04/13 05:02:38;;;;;;;18.42;12.88;;;10.80;99.90;;;;;;5096798;28;20055;-70
2022/04/13 05:05:05;;;;;;;20.35;13.93;;;10.80;99.90;;;;;;5097594;27;20039;-69
2022/04/13 05:07:31;;;;;;;18.88;13.02;;;10.80;99.90;;;;;;5095133;28;20126;-70
2022/04/13 05:09:58;;;;;;;18.13;13.75;;;10.80;99.90;;;;;;5095935;28;20162;-69
2022/04/13 05:12:24;;;;;;;18.73;13.80;;;10.80;99.90;;;;;;5102851;27;20082;-69
2022/04/13 05:14:49;;;;;;;19.20;13.55;;;10.90;99.90;;;;;;5084869;28;20522;-69
2022/04/13 05:17:15;;;;;;;15.60;12.15;;;10.90;99.90;;;;;;5102643;28;20044;-69
2022/04/13 05:19:40;;;;;;;19.88;13.10;;;10.90;99.90;;;;;;5085128;28;20036;-69
2022/04/13 05:22:06;;;;;;;16.60;12.88;;;11.00;99.90;;;;;;5095925;28;20104;-69
2022/04/13 05:24:31;;;;;;;16.58;12.27;;;11.00;99.90;;;;;;5110099;28;20051;-70
2022/04/13 05:26:57;;;;;;;21.88;13.50;;;11.00;99.90;;;;;;5092798;28;20044;-69
2022/04/13 05:29:23;;;;;;;20.17;13.35;;;11.10;99.90;;;;;;5093434;28;20101;-69
2022/04/13 05:31:48;;;;;;;18.95;14.52;;;11.10;99.90;;;;;;5091387;27;20043;-69
2022/04/13 05:34:14;;;;;;;15.82;11.95;;;11.10;99.90;;;;;;5133627;27;20050;-69
2022/04/13 05:36:39;;;;;;;21.23;13.68;;;11.20;99.90;;;;;;5130665;27;20041;-69
2022/04/13 05:39:05;;;;;;;20.75;12.90;;;11.10;99.90;;;;;;5108148;27;20042;-69
2022/04/13 05:41:30;;;;;;;16.38;12.68;;;11.20;99.90;;;;;;5114872;27;20107;-69
2022/04/13 05:43:56;;;;;;;16.58;12.80;;;11.20;99.90;;;;;;5083511;28;20050;-69
2022/04/13 05:46:22;;;;;;;22.05;13.95;;;11.20;99.90;;;;;;5120616;27;20479;-70
2022/04/13 05:48:47;;;;;;;39.70;15.57;;;11.20;99.90;;;;;;5099159;28;20055;-69
2022/04/13 05:51:13;;;;;;;19.38;14.10;;;11.20;99.90;;;;;;5091419;28;20084;-69
2022/04/13 05:53:39;;;;;;;13.68;11.35;;;11.20;99.90;;;;;;5084162;28;20049;-69
2022/04/13 05:56:05;;;;;;;18.60;12.48;;;11.30;99.90;;;;;;5070607;28;20181;-69
2022/04/13 05:58:31;;;;;;;21.05;14.30;;;11.40;99.90;;;;;;5070990;28;20411;-69
2022/04/13 06:00:57;;;;;;;19.58;13.25;;;11.40;99.90;;;;;;5071291;28;20041;-69
2022/04/13 06:03:23;;;;;;;20.33;13.77;;;11.50;99.90;;;;;;5071628;28;20048;-68
2022/04/13 06:05:49;;;;;;;20.90;14.73;;;11.50;99.90;;;;;;5072411;28;20048;-69
2022/04/13 06:08:15;;;;;;;18.63;14.55;;;11.50;99.90;;;;;;5077260;28;20044;-69
2022/04/13 06:10:41;;;;;;;21.17;13.30;;;11.60;99.90;;;;;;5110810;28;20062;-70
2022/04/13 06:13:07;;;;;;;18.90;14.35;;;11.70;99.90;;;;;;5101664;28;20049;-70
2022/04/13 06:15:33;;;;;;;19.77;14.63;;;11.70;99.90;;;;;;5090362;28;20047;-70
2022/04/13 06:17:59;;;;;;;22.77;15.35;;;11.70;99.90;;;;;;5091440;28;20046;-69
2022/04/13 06:20:25;;;;;;;21.08;15.90;;;11.80;99.90;;;;;;5092462;28;20358;-69
2022/04/13 06:22:52;;;;;;;24.60;17.00;;;11.90;99.90;;;;;;5092049;28;20044;-70
2022/04/13 06:25:18;;;;;;;24.20;14.73;;;12.00;99.90;;;;;;5091854;28;20094;-69
2022/04/13 06:27:44;;;;;;;32.15;16.80;;;12.00;99.90;;;;;;5091811;28;20044;-69
2022/04/13 06:30:11;;;;;;;23.63;15.77;;;12.00;99.90;;;;;;5089769;28;20104;-69
2022/04/13 06:32:39;;;;;;;25.52;16.85;;;12.10;99.90;;;;;;5083121;28;20040;-69
2022/04/13 06:35:07;;;;;;;24.48;17.10;;;12.10;99.90;;;;;;5094185;28;20119;-69
2022/04/13 06:37:33;;;;;;;25.98;15.55;;;12.20;99.90;;;;;;5081057;28;20123;-70
2022/04/13 06:39:59;;;;;;;24.95;17.27;;;12.30;99.90;;;;;;5078070;28;20490;-69
2022/04/13 06:42:24;;;;;;;27.23;16.27;;;12.40;99.90;;;;;;5092341;28;20048;-69
2022/04/13 06:44:52;;;;;;;23.40;14.48;;;12.50;99.90;;;;;;5074285;28;20040;-69
2022/04/13 06:47:21;;;;;;;31.70;16.00;;;12.60;99.90;;;;;;5070714;28;20483;-69
2022/04/13 06:49:47;;;;;;;22.48;15.73;;;12.70;99.90;;;;;;5069827;28;20072;-69
2022/04/13 06:52:13;;;;;;;22.10;14.05;;;12.80;99.90;;;;;;5068836;28;20494;-69
2022/04/13 06:54:42;;;;;;;23.20;15.30;;;12.80;99.90;;;;;;5078445;28;20048;-68
2022/04/13 06:57:08;;;;;;;24.20;14.65;;;12.80;99.90;;;;;;5078555;28;20063;-67
2022/04/13 06:59:34;;;;;;;22.52;14.05;;;12.80;99.90;;;;;;5079317;28;20474;-71
2022/04/13 07:02:00;;;;;;;25.33;14.63;;;12.90;99.90;;;;;;5082113;28;20051;-70
2022/04/13 07:04:25;;;;;;;25.85;16.10;;;12.90;99.90;;;;;;5081979;28;20047;-72
2022/04/13 07:06:51;;;;;;;27.00;16.08;;;12.90;99.90;;;;;;5086945;28;20056;-72
2022/04/13 07:09:19;;;;;;;25.38;15.70;;;12.90;99.90;;;;;;5084526;28;20048;-72
2022/04/13 07:11:45;;;;;;;25.20;15.40;;;13.00;99.90;;;;;;5071997;28;20041;-72
2022/04/13 07:14:11;;;;;;;27.90;16.65;;;13.00;99.90;;;;;;5078972;28;20087;-73
2022/04/13 07:16:36;;;;;;;21.08;15.80;;;13.10;99.90;;;;;;5069502;28;20509;-72
2022/04/13 07:19:02;;;;;;;27.02;15.40;;;13.20;99.90;;;;;;5070880;28;20580;-72
2022/04/13 07:21:27;;;;;;;18.08;13.38;;;13.30;99.90;;;;;;5068888;28;20536;-72
2022/04/13 07:23:53;;;;;;;23.15;13.40;;;13.40;99.90;;;;;;5079737;28;20075;-73
2022/04/13 07:26:19;;;;;;;19.92;13.18;;;13.50;99.90;;;;;;5082491;28;20464;-75
2022/04/13 07:28:46;;;;;;;32.25;12.85;;;13.70;99.90;;;;;;5095163;28;20036;-73
2022/04/13 07:31:11;;;;;;;18.50;12.32;;;13.80;99.90;;;;;;5082379;28;20048;-72
2022/04/13 07:33:37;;;;;;;18.17;11.07;;;13.90;99.90;;;;;;5078181;28;20450;-71
2022/04/13 07:36:03;;;;;;;19.45;11.43;;;13.90;99.90;;;;;;5095401;28;20056;-70
2022/04/13 07:38:28;;;;;;;17.00;11.15;;;13.90;99.90;;;;;;5090903;28;20043;-70
2022/04/13 07:40:54;;;;;;;21.85;11.43;;;13.90;99.90;;;;;;5092633;28;20131;-70
2022/04/13 07:43:20;;;;;;;17.58;11.20;;;13.90;99.90;;;;;;5101114;28;20123;-71
2022/04/13 07:45:45;;;;;;;18.90;10.63;;;13.90;99.90;;;;;;5115150;28;20052;-70
2022/04/13 07:48:11;;;;;;;20.48;11.48;;;13.90;99.90;;;;;;5113241;28;20071;-71
2022/04/13 07:50:36;;;;;;;13.98;10.35;;;13.80;99.90;;;;;;5129838;27;20130;-70
2022/04/13 07:53:02;;;;;;;24.15;12.10;;;13.90;99.90;;;;;;5117304;27;20055;-71
2022/04/13 07:55:31;;;;;;;18.75;11.18;;;13.90;99.90;;;;;;5119911;27;20143;-71
2022/04/13 07:57:57;;;;;;;13.95;10.60;;;13.90;99.90;;;;;;5095051;28;20055;-71
2022/04/13 08:00:22;;;;;;;14.32;10.25;;;13.90;99.90;;;;;;5128911;27;20089;-71
2022/04/13 08:02:48;;;;;;;15.02;10.73;;;13.90;99.90;;;;;;5116714;27;20074;-71
2022/04/13 08:05:14;;;;;;;17.30;10.95;;;14.00;99.90;;;;;;5117488;27;20101;-71
2022/04/13 08:07:43;;;;;;;18.15;11.48;;;14.10;99.90;;;;;;5135632;27;20068;-71
2022/04/13 08:10:09;;;;;;;17.88;10.98;;;14.20;99.90;;;;;;5110635;28;20062;-71
2022/04/13 08:12:35;;;;;;;14.57;10.45;;;14.20;99.90;;;;;;5114820;28;20031;-71
2022/04/13 08:15:03;;;;;;;17.92;10.68;;;14.30;99.90;;;;;;5093277;28;20048;-71
2022/04/13 08:17:29;;;;;;;17.17;11.05;;;14.40;99.90;;;;;;5102354;28;20052;-71
2022/04/13 08:19:55;;;;;;;18.23;10.95;;;14.60;99.90;;;;;;5094386;28;20055;-71
2022/04/13 08:22:25;;;;;;;20.00;10.57;;;14.70;99.90;;;;;;5078336;28;20062;-72
2022/04/13 08:24:51;;;;;;;14.38;10.18;;;14.70;99.90;;;;;;5074981;28;20055;-70
2022/04/13 08:27:17;;;;;;;15.52;10.35;;;14.70;99.90;;;;;;5094510;28;20056;-68
2022/04/13 08:29:43;;;;;;;12.90;8.93;;;14.80;99.90;;;;;;5093335;28;20487;-71
2022/04/13 08:32:08;;;;;;;24.05;10.18;;;15.00;99.90;;;;;;5077951;28;20044;-70
2022/04/13 08:34:34;;;;;;;13.40;9.20;;;15.10;99.90;;;;;;5096414;28;20062;-68
2022/04/13 08:36:59;;;;;;;14.95;9.77;;;15.30;99.90;;;;;;5108064;28;20489;-70
2022/04/13 08:39:25;;;;;;;13.98;10.48;;;15.40;99.90;;;;;;5099331;28;20406;-69
2022/04/13 08:42:08;;;;;;;17.08;10.10;;;15.40;99.90;;;;;;5096376;28;20047;-69
2022/04/13 08:44:47;;;;;;;12.00;9.18;;;15.40;99.90;;;;;;5074949;28;20079;-69
2022/04/13 08:47:18;;;;;;;13.27;8.27;;;15.40;99.90;;;;;;5096510;28;20040;-70
2022/04/13 08:49:45;;;;;;;15.55;8.38;;;15.40;99.90;;;;;;5099442;28;20401;-69
2022/04/13 08:52:13;;;;;;;15.60;9.98;;;15.40;99.90;;;;;;5088860;28;20089;-69
2022/04/13 08:55:06;;;;;;;11.70;9.43;;;15.50;99.90;;;;;;5078907;28;20135;-68
2022/04/13 08:57:37;;;;;;;16.10;9.18;;;15.40;99.90;;;;;;5080458;28;20044;-68
2022/04/13 09:00:11;;;;;;;15.70;7.35;;;15.30;99.90;;;;;;5075646;28;20674;-69
2022/04/13 09:02:43;;;;;;;12.88;7.57;;;15.30;99.90;;;;;;5093545;28;20059;-68
2022/04/13 09:05:18;;;;;;;13.20;7.68;;;15.20;99.90;;;;;;5077899;28;20040;-68
2022/04/13 09:07:53;;;;;;;11.40;7.90;;;15.20;99.90;;;;;;5105561;28;20403;-67
2022/04/13 09:10:21;;;;;;;11.88;8.00;;;15.20;99.90;;;;;;5094030;28;20048;-68
2022/04/13 09:12:50;;;;;;;12.80;8.20;;;15.20;99.90;;;;;;5110495;28;20048;-68
2022/04/13 09:15:15;;;;;;;14.80;9.32;;;15.30;99.90;;;;;;5095198;28;20040;-68
2022/04/13 09:17:42;;;;;;;13.85;8.52;;;15.30;99.90;;;;;;5093030;28;20048;-68
2022/04/13 09:20:08;;;;;;;13.43;8.52;;;15.60;99.90;;;;;;5092859;28;20407;-68
2022/04/13 09:22:34;;;;;;;18.83;8.68;;;15.60;99.90;;;;;;5093181;28;20040;-68
2022/04/13 09:25:01;;;;;;;11.10;7.20;;;15.70;99.90;;;;;;5096344;28;20032;-67
2022/04/13 09:27:26;;;;;;;16.40;7.13;;;15.90;99.90;;;;;;5111677;28;20040;-68
2022/04/13 09:29:52;;;;;;;14.63;7.63;;;16.00;99.90;;;;;;5091415;27;20044;-68
2022/04/13 09:32:18;;;;;;;10.02;7.07;;;16.00;99.90;;;;;;5100877;28;20402;-67
2022/04/13 09:34:44;;;;;;;12.20;8.73;;;16.10;99.90;;;;;;5076537;28;20403;-68
2022/04/13 09:37:11;;;;;;;9.95;6.93;;;16.20;99.90;;;;;;5100973;28;20039;-68
2022/04/13 09:39:37;;;;;;;13.75;7.68;;;16.30;99.90;;;;;;5111060;28;20039;-69
2022/04/13 09:42:04;;;;;;;11.38;7.75;;;16.30;99.90;;;;;;5083083;28;20062;-68
2022/04/13 09:44:30;;;;;;;10.20;7.97;;;16.40;99.90;;;;;;5106735;27;20047;-70
2022/04/13 09:47:10;;;;;;;14.07;8.38;;;16.40;99.90;;;;;;5119456;27;20051;-69
2022/04/13 09:49:45;;;;;;;9.00;6.47;;;16.50;99.90;;;;;;5115978;27;20126;-71
2022/04/13 09:52:11;;;;;;;9.27;6.68;;;16.50;99.90;;;;;;5102329;27;20046;-72
2022/04/13 09:54:48;;;;;;;15.13;6.20;;;16.60;99.90;;;;;;5127267;27;20059;-71
2022/04/13 09:57:22;;;;;;;10.80;6.95;;;16.60;99.90;;;;;;5104883;27;20047;-70
2022/04/13 09:59:58;;;;;;;10.15;7.72;;;16.60;99.90;;;;;;5108788;27;20138;-72
2022/04/13 10:02:44;;;;;;;11.45;6.90;;;16.70;99.90;;;;;;5114047;27;20040;-71
2022/04/13 10:05:30;;;;;;;12.52;8.18;;;16.80;99.90;;;;;;5084187;28;20054;-71
2022/04/13 10:08:10;;;;;;;11.38;7.63;;;17.30;99.90;;;;;;5081120;28;20063;-70
2022/04/13 10:10:41;;;;;;;12.05;6.80;;;16.90;99.90;;;;;;5093530;28;20044;-69
2022/04/13 10:13:07;;;;;;;9.05;6.15;;;17.00;99.90;;;;;;5124425;27;20039;-68
2022/04/13 10:15:32;;;;;;;7.10;6.22;;;17.20;99.90;;;;;;5111356;27;20485;-67
2022/04/13 10:17:59;;;;;;;14.43;7.25;;;17.30;99.90;;;;;;5095345;28;20044;-70
2022/04/13 10:20:42;;;;;;;13.18;7.55;;;17.40;99.90;;;;;;5102621;28;20055;-69
2022/04/13 10:23:08;;;;;;;9.35;6.35;;;17.40;99.90;;;;;;5080194;28;20039;-68
2022/04/13 10:25:33;;;;;;;11.32;6.18;;;17.40;99.90;;;;;;5098182;27;20120;-69
2022/04/13 10:28:00;;;;;;;11.43;5.43;;;17.30;99.90;;;;;;5079435;28;20044;-70
2022/04/13 10:30:29;;;;;;;10.20;5.38;;;17.40;99.90;;;;;;5089608;28;20080;-71
2022/04/13 10:33:06;;;;;;;6.85;5.57;;;17.40;99.90;;;;;;5100584;28;20046;-70
2022/04/13 10:35:34;;;;;;;7.18;5.22;;;17.60;99.90;;;;;;5090647;28;20104;-71
2022/04/13 10:38:00;;;;;;;10.30;4.82;;;17.70;99.90;;;;;;5091251;28;20040;-69
2022/04/13 10:40:29;;;;;;;10.85;4.80;;;17.80;99.90;;;;;;5073281;28;20044;-69
2022/04/13 10:42:59;;;;;;;7.35;4.57;;;18.10;99.90;;;;;;5091922;28;20048;-70
2022/04/13 10:45:26;;;;;;;7.60;5.07;;;18.10;99.90;;;;;;5073163;28;20131;-69
2022/04/13 10:48:06;;;;;;;8.90;5.75;;;18.00;99.90;;;;;;5073445;28;20552;-69
2022/04/13 10:50:47;;;;;;;9.93;5.90;;;17.90;99.90;;;;;;5090674;28;20056;-69
2022/04/13 10:53:28;;;;;;;11.95;5.85;;;17.80;99.90;;;;;;5092171;28;20109;-69
2022/04/13 10:56:05;;;;;;;6.20;4.75;;;19.00;99.90;;;;;;5073421;28;20056;-69
2022/04/13 10:59:05;;;;;;;8.90;4.80;;;17.80;99.90;;;;;;5090912;28;20040;-70
2022/04/13 11:01:46;;;;;;;7.85;5.10;;;17.90;99.90;;;;;;5064474;28;20056;-70
2022/04/13 11:04:12;;;;;;;11.57;5.43;;;18.00;99.90;;;;;;5091866;28;20051;-69
2022/04/13 11:06:39;;;;;;;9.07;5.40;;;17.80;99.90;;;;;;5090978;28;20044;-69
2022/04/13 11:09:09;;;;;;;6.97;4.40;;;18.00;99.90;;;;;;5073868;28;20039;-69
2022/04/13 11:11:36;;;;;;;8.95;4.70;;;18.00;99.90;;;;;;5090735;28;20056;-70
2022/04/13 11:14:25;;;;;;;10.85;4.53;;;18.00;99.90;;;;;;5073113;28;20382;-70
2022/04/13 11:17:05;;;;;;;6.65;4.15;;;17.90;99.90;;;;;;5073241;28;20623;-70
2022/04/13 11:19:31;;;;;;;6.70;3.72;;;17.80;99.90;;;;;;5072540;28;20044;-69
2022/04/13 11:21:57;;;;;;;8.55;4.72;;;17.70;99.90;;;;;;5091564;28;20043;-69
2022/04/13 11:24:56;;;;;;;7.80;4.90;;;17.60;99.90;;;;;;5074027;28;20117;-69
2022/04/13 11:27:22;;;;;;;7.95;5.10;;;17.50;99.90;;;;;;5072675;28;20052;-69
2022/04/13 11:30:02;;;;;;;8.43;4.30;;;17.30;99.90;;;;;;5091246;28;20040;-69
2022/04/13 11:32:33;;;;;;;13.55;4.75;;;17.40;99.90;;;;;;5090551;28;20052;-70
2022/04/13 11:35:00;;;;;;;6.50;3.75;;;17.40;99.90;;;;;;5073285;28;20131;-69
2022/04/13 11:37:42;;;;;;;10.35;4.07;;;17.60;99.90;;;;;;5091520;28;20044;-70
2022/04/13 11:40:11;;;;;;;5.37;3.87;;;17.60;99.90;;;;;;5090818;28;20039;-69
2022/04/13 11:42:37;;;;;;;14.38;4.07;;;17.60;99.90;;;;;;5091243;28;20285;-70
2022/04/13 11:45:11;;;;;;;7.13;3.95;;;17.60;99.90;;;;;;5072901;28;20056;-70
2022/04/13 11:47:45;;;;;;;8.27;4.43;;;17.50;99.90;;;;;;5090338;28;20097;-69
2022/04/13 11:50:14;;;;;;;9.20;4.78;;;17.50;99.90;;;;;;5091247;28;20052;-70
2022/04/13 11:52:48;;;;;;;8.68;4.97;;;17.40;99.90;;;;;;5073054;28;20056;-69
2022/04/13 11:55:20;;;;;;;10.85;4.53;;;17.30;99.90;;;;;;5090490;28;20052;-69
2022/04/13 11:57:52;;;;;;;11.90;6.03;;;17.20;99.90;;;;;;5072918;28;20044;-69
2022/04/13 12:00:42;;;;;;;9.65;4.93;;;17.10;99.90;;;;;;5073365;28;20076;-70
2022/04/13 12:03:16;;;;;;;13.40;6.30;;;17.00;99.90;;;;;;5073415;28;20616;-69
2022/04/13 12:05:48;;;;;;;12.13;4.82;;;17.00;99.90;;;;;;5090924;28;20044;-70
2022/04/13 12:08:20;;;;;;;10.10;4.60;;;16.90;99.90;;;;;;5090705;28;20090;-69
2022/04/13 12:10:48;;;;;;;12.23;5.40;;;16.80;99.90;;;;;;5091050;28;20046;-69
2022/04/13 12:13:14;;;;;;;16.38;5.38;;;16.80;99.90;;;;;;5091261;28;20044;-69
2022/04/13 12:15:45;;;;;;;8.98;4.03;;;16.60;99.90;;;;;;5090100;28;20044;-69
2022/04/13 12:18:12;;;;;;;10.10;4.57;;;16.60;99.90;;;;;;5073056;28;20101;-69
2022/04/13 12:20:37;;;;;;;9.32;4.65;;;16.60;99.90;;;;;;5072715;28;20507;-69
2022/04/13 12:23:18;;;;;;;9.50;4.57;;;16.50;99.90;;;;;;5072071;28;20083;-69
2022/04/13 12:25:48;;;;;;;9.27;5.03;;;16.50;99.90;;;;;;5092955;28;20127;-69
2022/04/13 12:28:14;;;;;;;13.13;4.97;;;16.40;99.90;;;;;;5076758;28;20631;-69
2022/04/13 12:30:40;;;;;;;11.48;4.97;;;16.40;99.90;;;;;;5093418;28;20043;-69
2022/04/13 12:33:21;;;;;;;10.18;4.43;;;16.40;99.90;;;;;;5076632;28;20127;-69
2022/04/13 12:36:08;;;;;;;9.05;4.63;;;16.30;99.90;;;;;;5075450;28;20101;-69
2022/04/13 12:38:39;;;;;;;8.48;4.65;;;16.30;99.90;;;;;;5094174;28;20506;-70
2022/04/13 12:41:04;;;;;;;12.80;4.53;;;16.20;99.90;;;;;;5094459;28;20040;-69